Time;durP1;ratioP1;P1;durP2;ratioP2;P2;SDS_P1;SDS_P2;PMS_P1;PMS_P2;Temp;Humidity;BMP_temperature;BMP_pressure;BME280_temperature;BME280_humidity;BME280_pressure;Samples;Min_cycle;Max_cycle;Signal;HPM_P1;HPM_P2
2023/05/04 00:00:12;;;;;;;0.10;0.10;;;11.30;99.90;;;;;;5074691;28;21049;-82
2023/05/04 00:02:38;;;;;;;0.10;0.10;;;11.20;99.90;;;;;;5073237;28;20195;-82
2023/05/04 00:05:07;;;;;;;0.10;0.10;;;11.10;99.90;;;;;;5072330;28;20189;-83
2023/05/04 00:07:33;;;;;;;0.10;0.10;;;11.20;99.90;;;;;;5071631;28;20612;-81
2023/05/04 00:10:00;;;;;;;0.10;0.10;;;11.10;99.90;;;;;;5073405;28;20200;-82
2023/05/04 00:12:26;;;;;;;0.10;0.10;;;11.00;99.90;;;;;;5071904;28;20269;-83
2023/05/04 00:14:51;;;;;;;0.10;0.10;;;10.90;99.90;;;;;;5074290;28;20184;-82
2023/05/04 00:17:17;;;;;;;0.10;0.10;;;10.90;99.90;;;;;;5072418;28;20378;-82
2023/05/04 00:19:43;;;;;;;0.23;0.23;;;10.90;99.90;;;;;;5072420;28;20239;-82
2023/05/04 00:22:09;;;;;;;0.07;0.07;;;10.90;99.90;;;;;;5070754;28;20578;-82
2023/05/04 00:24:35;;;;;;;0.10;0.10;;;10.80;99.90;;;;;;5073227;28;20199;-82
2023/05/04 00:27:01;;;;;;;0.10;0.10;;;10.80;99.90;;;;;;5070106;28;20210;-81
2023/05/04 00:29:26;;;;;;;0.10;0.10;;;10.80;99.90;;;;;;5072122;28;20198;-82
2023/05/04 00:31:52;;;;;;;0.10;0.10;;;10.80;99.90;;;;;;5072721;28;20233;-83
2023/05/04 00:34:17;;;;;;;0.10;0.10;;;10.80;99.90;;;;;;5072849;28;20176;-82
2023/05/04 00:36:43;;;;;;;0.10;0.10;;;10.80;99.90;;;;;;5070836;28;20556;-81
2023/05/04 00:39:09;;;;;;;0.10;0.10;;;10.80;99.90;;;;;;5072478;28;20218;-81
2023/05/04 00:41:34;;;;;;;0.10;0.10;;;10.80;99.90;;;;;;5072199;28;20303;-82
2023/05/04 00:44:03;;;;;;;0.10;0.10;;;10.70;99.90;;;;;;5071851;28;20354;-82
2023/05/04 00:46:29;;;;;;;0.10;0.10;;;10.80;99.90;;;;;;5072714;28;20264;-81
2023/05/04 00:48:54;;;;;;;0.10;0.10;;;10.70;99.90;;;;;;5069877;28;20326;-82
2023/05/04 00:51:22;;;;;;;0.10;0.10;;;10.70;99.90;;;;;;5074145;28;20535;-82
2023/05/04 00:53:48;;;;;;;0.10;0.10;;;10.70;99.90;;;;;;5075748;28;20745;-82
2023/05/04 00:56:15;;;;;;;0.10;0.10;;;10.70;99.90;;;;;;5074714;28;20218;-82
2023/05/04 00:58:41;;;;;;;0.10;0.10;;;10.70;99.90;;;;;;5074534;28;21131;-82
2023/05/04 01:01:07;;;;;;;0.10;0.10;;;10.70;99.90;;;;;;5077204;28;20172;-82
2023/05/04 01:03:32;;;;;;;0.10;0.10;;;10.60;99.90;;;;;;5076997;28;20200;-82
2023/05/04 01:06:04;;;;;;;0.03;0.03;;;10.60;99.90;;;;;;5076350;28;20212;-82
2023/05/04 01:08:31;;;;;;;0.10;0.10;;;10.60;99.90;;;;;;5072980;28;20582;-82
2023/05/04 01:11:06;;;;;;;0.10;0.10;;;10.50;99.90;;;;;;5076484;28;20189;-82
2023/05/04 01:13:33;;;;;;;0.10;0.10;;;10.50;99.90;;;;;;5076171;28;20180;-82
2023/05/04 01:15:59;;;;;;;0.10;0.10;;;10.50;99.90;;;;;;5075519;28;20531;-82
2023/05/04 01:18:25;;;;;;;0.10;0.10;;;10.50;99.90;;;;;;5076289;28;20195;-82
2023/05/04 01:20:50;;;;;;;0.10;0.10;;;10.40;99.90;;;;;;5075718;28;20205;-82
2023/05/04 01:23:16;;;;;;;0.10;0.10;;;10.40;99.90;;;;;;5076841;28;20193;-82
2023/05/04 01:26:10;;;;;;;0.00;0.00;;;10.40;99.90;;;;;;5073068;28;20219;-82
2023/05/04 01:28:50;;;;;;;0.10;0.10;;;10.30;99.90;;;;;;5075931;28;21101;-82
2023/05/04 01:31:20;;;;;;;0.10;0.10;;;10.20;99.90;;;;;;5078151;28;20672;-83
2023/05/04 01:33:46;;;;;;;0.10;0.10;;;10.20;99.90;;;;;;5075028;28;20628;-82
2023/05/04 01:36:12;;;;;;;0.10;0.10;;;10.20;99.90;;;;;;5073972;28;21241;-82
2023/05/04 01:38:38;;;;;;;0.10;0.10;;;10.20;99.90;;;;;;5076422;28;20253;-82
2023/05/04 01:41:03;;;;;;;0.10;0.10;;;10.10;99.90;;;;;;5073414;28;20613;-82
2023/05/04 01:43:29;;;;;;;0.10;0.10;;;10.10;99.90;;;;;;5074350;28;20307;-82
2023/05/04 01:45:55;;;;;;;0.10;0.10;;;10.10;99.90;;;;;;5073524;28;20204;-81
2023/05/04 01:48:20;;;;;;;0.10;0.10;;;10.10;99.90;;;;;;5074672;28;20186;-82
2023/05/04 01:50:46;;;;;;;0.10;0.10;;;10.10;99.90;;;;;;5075564;28;20181;-82
2023/05/04 01:53:11;;;;;;;0.10;0.10;;;10.10;99.90;;;;;;5072882;28;20181;-82
2023/05/04 01:55:37;;;;;;;0.10;0.10;;;10.10;99.90;;;;;;5076556;28;20230;-82
2023/05/04 01:58:02;;;;;;;0.10;0.10;;;10.10;99.90;;;;;;5074542;28;20246;-82
2023/05/04 02:00:28;;;;;;;0.00;0.00;;;10.00;99.90;;;;;;5076287;28;20207;-82
2023/05/04 02:02:53;;;;;;;0.10;0.10;;;10.00;99.90;;;;;;5073814;28;20196;-81
2023/05/04 02:05:19;;;;;;;0.10;0.10;;;10.00;99.90;;;;;;5074608;28;20180;-82
2023/05/04 02:07:45;;;;;;;0.10;0.10;;;9.90;99.90;;;;;;5072813;28;20242;-81
2023/05/04 02:10:10;;;;;;;0.10;0.10;;;9.80;99.90;;;;;;5073168;28;20298;-82
2023/05/04 02:12:36;;;;;;;0.10;0.10;;;9.60;99.90;;;;;;5073946;28;20192;-82
2023/05/04 02:15:01;;;;;;;0.10;0.10;;;9.50;99.90;;;;;;5076490;28;20226;-82
2023/05/04 02:17:27;;;;;;;0.10;0.10;;;9.50;99.90;;;;;;5074343;28;20184;-82
2023/05/04 02:19:52;;;;;;;0.10;0.10;;;9.40;99.90;;;;;;5074536;28;21003;-82
2023/05/04 02:22:18;;;;;;;0.10;0.10;;;9.30;99.90;;;;;;5075931;28;20191;-82
2023/05/04 02:24:43;;;;;;;0.10;0.10;;;9.20;99.90;;;;;;5075050;28;20197;-82
2023/05/04 02:27:09;;;;;;;0.07;0.07;;;9.10;99.90;;;;;;5074902;28;20577;-82
2023/05/04 02:29:36;;;;;;;0.10;0.10;;;9.10;99.90;;;;;;5073465;28;20272;-81
2023/05/04 02:32:01;;;;;;;0.10;0.10;;;9.00;99.90;;;;;;5077521;28;20654;-82
2023/05/04 02:34:28;;;;;;;0.10;0.10;;;9.10;99.90;;;;;;5075497;28;20185;-82
2023/05/04 02:36:53;;;;;;;0.10;0.10;;;9.10;99.90;;;;;;5074471;28;20191;-82
2023/05/04 02:39:19;;;;;;;0.10;0.10;;;9.10;99.90;;;;;;5074395;28;20208;-82
2023/05/04 02:41:44;;;;;;;0.07;0.07;;;9.10;99.90;;;;;;5072971;28;20719;-82
2023/05/04 02:44:10;;;;;;;0.10;0.10;;;9.20;99.90;;;;;;5070999;28;20185;-83
2023/05/04 02:46:35;;;;;;;0.10;0.10;;;9.20;99.90;;;;;;5072738;28;20253;-83
2023/05/04 02:49:01;;;;;;;0.10;0.10;;;9.30;99.90;;;;;;5073995;28;20243;-81
2023/05/04 02:51:26;;;;;;;0.10;0.10;;;9.40;99.90;;;;;;5071483;28;20555;-82
2023/05/04 02:53:52;;;;;;;0.10;0.10;;;9.40;99.90;;;;;;5074360;28;20188;-82
2023/05/04 02:56:17;;;;;;;0.10;0.10;;;9.50;99.90;;;;;;5074336;28;20222;-82
2023/05/04 02:58:43;;;;;;;0.10;0.10;;;9.80;99.90;;;;;;5075520;28;20208;-81
2023/05/04 03:01:08;;;;;;;0.10;0.10;;;9.80;99.90;;;;;;5074325;28;20189;-81
2023/05/04 03:03:34;;;;;;;0.10;0.10;;;9.80;99.90;;;;;;5072752;28;20242;-82
2023/05/04 03:05:59;;;;;;;0.10;0.10;;;9.80;99.90;;;;;;5073300;28;20211;-82
2023/05/04 03:08:25;;;;;;;0.10;0.10;;;9.80;99.90;;;;;;5073105;28;20215;-82
2023/05/04 03:10:51;;;;;;;0.10;0.10;;;9.70;99.90;;;;;;5074086;28;20302;-82
2023/05/04 03:13:16;;;;;;;0.10;0.10;;;9.60;99.90;;;;;;5072550;28;20180;-82
2023/05/04 03:15:42;;;;;;;0.10;0.10;;;9.70;99.90;;;;;;5074580;28;20188;-82
2023/05/04 03:18:08;;;;;;;0.10;0.10;;;9.70;99.90;;;;;;5075873;28;20189;-82
2023/05/04 03:20:33;;;;;;;0.10;0.10;;;9.80;99.90;;;;;;5071290;28;20213;-81
2023/05/04 03:22:59;;;;;;;0.10;0.10;;;9.80;99.90;;;;;;5073583;28;20212;-82
2023/05/04 03:25:24;;;;;;;0.10;0.10;;;9.70;99.90;;;;;;5072770;28;20552;-82
2023/05/04 03:27:50;;;;;;;0.10;0.10;;;9.70;99.90;;;;;;5071892;28;20633;-82
2023/05/04 03:30:16;;;;;;;0.10;0.10;;;9.60;99.90;;;;;;5072834;28;20700;-82
2023/05/04 03:32:41;;;;;;;0.10;0.10;;;9.70;99.90;;;;;;5074343;28;20192;-82
2023/05/04 03:35:08;;;;;;;0.10;0.10;;;9.80;99.90;;;;;;5075239;28;20178;-82
2023/05/04 03:37:33;;;;;;;0.10;0.10;;;9.90;99.90;;;;;;5072952;28;20189;-82
2023/05/04 03:39:59;;;;;;;0.10;0.10;;;9.90;99.90;;;;;;5073140;28;20760;-82
2023/05/04 03:42:24;;;;;;;0.10;0.10;;;10.00;99.90;;;;;;5073374;28;20180;-82
2023/05/04 03:44:50;;;;;;;0.10;0.10;;;10.10;99.90;;;;;;5073009;28;20203;-82
2023/05/04 03:47:15;;;;;;;0.10;0.10;;;10.10;99.90;;;;;;5072896;28;20197;-81
2023/05/04 03:49:41;;;;;;;0.10;0.10;;;10.10;99.90;;;;;;5072952;28;20291;-83
2023/05/04 03:52:09;;;;;;;0.10;0.10;;;10.10;99.90;;;;;;5071591;28;20210;-82
2023/05/04 03:54:35;;;;;;;0.10;0.10;;;10.20;99.90;;;;;;5071288;28;20196;-82
2023/05/04 03:57:03;;;;;;;0.10;0.10;;;10.20;99.90;;;;;;5073097;28;20986;-82
2023/05/04 03:59:29;;;;;;;0.10;0.10;;;10.20;99.90;;;;;;5071255;28;20224;-82
2023/05/04 04:01:54;;;;;;;0.07;0.07;;;10.30;99.90;;;;;;5073613;28;20188;-82
2023/05/04 04:04:20;;;;;;;0.10;0.10;;;10.20;99.90;;;;;;5070498;28;20189;-82
2023/05/04 04:06:45;;;;;;;0.10;0.10;;;10.20;99.90;;;;;;5073145;28;20209;-82
2023/05/04 04:09:11;;;;;;;0.10;0.10;;;10.10;99.90;;;;;;5073393;28;20210;-82
2023/05/04 04:11:36;;;;;;;0.10;0.10;;;10.10;99.90;;;;;;5070331;28;20807;-81
2023/05/04 04:14:02;;;;;;;0.10;0.10;;;10.10;99.90;;;;;;5074179;28;20195;-82
2023/05/04 04:16:27;;;;;;;0.10;0.10;;;10.20;99.90;;;;;;5071127;28;20661;-82
2023/05/04 04:18:53;;;;;;;0.10;0.10;;;10.20;99.90;;;;;;5073235;28;20280;-82
2023/05/04 04:21:19;;;;;;;0.10;0.10;;;10.20;99.90;;;;;;5070998;28;20666;-82
2023/05/04 04:23:44;;;;;;;0.10;0.10;;;10.20;99.90;;;;;;5072826;28;20216;-82
2023/05/04 04:26:10;;;;;;;0.10;0.10;;;10.20;99.90;;;;;;5068101;28;20223;-81
2023/05/04 04:28:35;;;;;;;0.10;0.10;;;10.20;99.90;;;;;;5071033;28;20796;-82
2023/05/04 04:31:02;;;;;;;0.10;0.10;;;10.20;99.90;;;;;;5073182;28;20181;-82
2023/05/04 04:33:27;;;;;;;0.10;0.10;;;10.20;99.90;;;;;;5071891;28;20196;-82
2023/05/04 04:35:53;;;;;;;0.10;0.10;;;10.30;99.90;;;;;;5077581;28;20185;-82
2023/05/04 04:38:18;;;;;;;0.10;0.10;;;10.30;99.90;;;;;;5074149;28;20184;-82
2023/05/04 04:40:44;;;;;;;0.10;0.10;;;10.30;99.90;;;;;;5073413;28;20219;-83
2023/05/04 04:43:10;;;;;;;0.10;0.10;;;10.30;99.90;;;;;;5071517;28;20242;-83
2023/05/04 04:45:36;;;;;;;0.10;0.10;;;10.30;99.90;;;;;;5072466;28;20549;-82
2023/05/04 04:48:02;;;;;;;0.10;0.10;;;10.40;99.90;;;;;;5070151;28;20215;-83
2023/05/04 04:50:28;;;;;;;0.10;0.10;;;10.50;99.90;;;;;;5072116;28;20226;-83
2023/05/04 04:52:54;;;;;;;0.10;0.10;;;10.50;99.90;;;;;;5072238;28;20192;-82
2023/05/04 04:55:20;;;;;;;0.10;0.10;;;10.60;99.90;;;;;;5071396;28;20238;-83
2023/05/04 04:57:45;;;;;;;0.10;0.10;;;10.60;99.90;;;;;;5068916;28;20718;-81
2023/05/04 05:00:14;;;;;;;0.10;0.10;;;10.50;99.90;;;;;;5072814;28;20204;-81
2023/05/04 05:02:40;;;;;;;0.03;0.03;;;10.50;99.90;;;;;;5074164;28;20201;-81
2023/05/04 05:05:06;;;;;;;0.10;0.10;;;10.60;99.90;;;;;;5071789;28;20189;-81
2023/05/04 05:07:32;;;;;;;0.10;0.10;;;10.60;99.90;;;;;;5069223;28;20217;-81
2023/05/04 05:09:57;;;;;;;0.10;0.10;;;10.80;99.90;;;;;;5068844;28;20212;-83
2023/05/04 05:12:23;;;;;;;0.10;0.10;;;10.80;99.90;;;;;;5067090;28;20255;-84
2023/05/04 05:14:49;;;;;;;0.10;0.10;;;10.80;99.90;;;;;;5071067;28;20273;-84
2023/05/04 05:17:15;;;;;;;0.10;0.10;;;10.90;99.90;;;;;;5072002;28;20649;-84
2023/05/04 05:19:41;;;;;;;0.10;0.10;;;11.00;99.90;;;;;;5069991;28;20240;-84
2023/05/04 05:22:06;;;;;;;0.10;0.10;;;11.10;99.90;;;;;;5070826;28;21134;-83
2023/05/04 05:24:32;;;;;;;0.10;0.10;;;11.30;99.90;;;;;;5069382;28;20216;-82
2023/05/04 05:26:58;;;;;;;0.10;0.10;;;11.30;99.90;;;;;;5068399;28;20216;-82
2023/05/04 05:29:24;;;;;;;0.10;0.10;;;11.40;99.90;;;;;;5054522;28;20216;-83
2023/05/04 05:31:50;;;;;;;0.10;0.10;;;11.50;99.90;;;;;;5069970;28;20218;-82
2023/05/04 05:34:16;;;;;;;0.10;0.10;;;11.60;99.90;;;;;;5075758;28;20185;-81
2023/05/04 05:36:41;;;;;;;0.10;0.10;;;11.70;99.90;;;;;;5075938;28;20188;-82
2023/05/04 05:39:07;;;;;;;0.10;0.10;;;11.90;99.90;;;;;;5078493;28;20252;-82
2023/05/04 05:41:33;;;;;;;0.10;0.10;;;11.90;99.90;;;;;;5080865;28;20191;-82
2023/05/04 05:43:59;;;;;;;0.10;0.10;;;12.00;99.90;;;;;;5079098;28;20614;-82
2023/05/04 05:46:26;;;;;;;0.10;0.10;;;12.30;99.90;;;;;;5076478;28;20201;-82
2023/05/04 05:48:52;;;;;;;0.10;0.10;;;12.30;99.90;;;;;;5076602;28;20216;-81
2023/05/04 05:51:17;;;;;;;0.10;0.10;;;12.30;99.90;;;;;;5076286;28;20180;-82
2023/05/04 05:53:44;;;;;;;0.10;0.10;;;12.30;99.90;;;;;;5076337;28;20181;-82
2023/05/04 05:56:09;;;;;;;0.10;0.10;;;12.30;99.90;;;;;;5074837;28;20222;-82
2023/05/04 05:58:35;;;;;;;0.10;0.10;;;12.40;99.90;;;;;;5078132;28;21158;-82
2023/05/04 06:01:01;;;;;;;0.10;0.10;;;12.30;99.90;;;;;;5076267;28;20302;-82
2023/05/04 06:03:26;;;;;;;0.10;0.10;;;12.30;99.90;;;;;;5077158;28;20254;-82
2023/05/04 06:05:52;;;;;;;0.10;0.10;;;12.30;99.90;;;;;;5074316;28;20250;-82
2023/05/04 06:08:17;;;;;;;0.10;0.10;;;12.50;99.90;;;;;;5074336;28;20553;-82
2023/05/04 06:10:43;;;;;;;0.10;0.10;;;12.50;99.90;;;;;;5077214;28;20180;-81
2023/05/04 06:13:08;;;;;;;0.10;0.10;;;12.50;99.90;;;;;;5079150;28;20216;-82
2023/05/04 06:15:35;;;;;;;1.03;1.03;;;12.70;99.90;;;;;;5075651;28;20191;-81
2023/05/04 06:18:01;;;;;;;0.10;0.10;;;12.70;99.90;;;;;;5076866;28;20188;-82
2023/05/04 06:20:27;;;;;;;0.10;0.10;;;12.70;99.90;;;;;;5073837;28;20219;-82
2023/05/04 06:22:53;;;;;;;0.10;0.10;;;12.80;99.90;;;;;;5074744;28;20190;-81
2023/05/04 06:25:19;;;;;;;0.10;0.10;;;12.70;99.90;;;;;;5076738;28;20184;-82
2023/05/04 06:27:45;;;;;;;0.10;0.10;;;12.80;99.90;;;;;;5077200;28;20215;-82
2023/05/04 06:30:12;;;;;;;0.00;0.00;;;13.20;99.90;;;;;;5073673;28;20218;-82
2023/05/04 06:32:37;;;;;;;0.10;0.10;;;13.00;99.90;;;;;;5076226;28;20745;-82
2023/05/04 06:35:04;;;;;;;0.10;0.10;;;13.20;99.90;;;;;;5074546;28;20285;-82
2023/05/04 06:37:29;;;;;;;0.10;0.10;;;13.10;99.90;;;;;;5060948;28;20253;-82
2023/05/04 06:39:55;;;;;;;0.10;0.10;;;13.40;99.90;;;;;;5079491;28;20291;-82
2023/05/04 06:42:20;;;;;;;0.10;0.10;;;13.30;99.90;;;;;;5078652;28;20196;-82
2023/05/04 06:44:47;;;;;;;0.10;0.10;;;12.80;99.90;;;;;;5081386;28;20267;-82
2023/05/04 06:47:14;;;;;;;0.10;0.10;;;13.00;99.90;;;;;;5077415;28;20206;-84
2023/05/04 06:49:40;;;;;;;0.10;0.10;;;13.30;99.90;;;;;;5077013;28;20586;-81
2023/05/04 06:52:05;;;;;;;0.10;0.10;;;13.40;99.90;;;;;;5077504;28;20196;-82
2023/05/04 06:54:31;;;;;;;0.10;0.10;;;13.10;99.90;;;;;;5076658;28;20268;-82
2023/05/04 06:56:56;;;;;;;0.10;0.10;;;13.30;99.90;;;;;;5074285;28;20187;-83
2023/05/04 06:59:22;;;;;;;0.10;0.10;;;13.50;99.90;;;;;;5069568;28;20244;-82
2023/05/04 07:01:48;;;;;;;0.10;0.10;;;13.40;99.90;;;;;;5067494;28;20219;-82
2023/05/04 07:04:15;;;;;;;0.10;0.10;;;13.50;99.90;;;;;;5073384;28;20207;-82
2023/05/04 07:06:42;;;;;;;0.13;0.13;;;13.50;99.90;;;;;;5069224;28;20339;-82
2023/05/04 07:09:08;;;;;;;0.10;0.10;;;13.60;99.90;;;;;;5077311;28;20204;-82
2023/05/04 07:11:33;;;;;;;0.10;0.10;;;13.70;99.90;;;;;;5077880;28;20241;-80
2023/05/04 07:13:59;;;;;;;0.00;0.00;;;13.80;99.90;;;;;;5077034;28;20224;-81
2023/05/04 07:16:25;;;;;;;1.33;1.30;;;14.10;99.90;;;;;;5076342;28;20196;-81
2023/05/04 07:18:50;;;;;;;0.10;0.10;;;14.10;99.90;;;;;;5076983;28;20206;-81
2023/05/04 07:21:16;;;;;;;0.10;0.10;;;14.20;99.90;;;;;;5078739;28;20184;-82
2023/05/04 07:23:41;;;;;;;0.10;0.10;;;13.90;99.90;;;;;;5078607;28;20219;-81
2023/05/04 07:26:07;;;;;;;0.10;0.10;;;14.30;99.90;;;;;;5078399;28;20247;-82
2023/05/04 07:28:33;;;;;;;0.10;0.10;;;14.20;99.90;;;;;;5079044;28;20564;-81
2023/05/04 07:30:58;;;;;;;0.10;0.10;;;14.50;99.90;;;;;;5083385;28;20284;-81
2023/05/04 07:33:25;;;;;;;0.10;0.10;;;14.20;99.90;;;;;;5083159;28;20197;-80
2023/05/04 07:35:57;;;;;;;0.10;0.10;;;14.60;99.90;;;;;;5082228;28;20187;-82
2023/05/04 07:38:23;;;;;;;0.20;0.20;;;14.80;99.90;;;;;;5081192;28;20188;-81
2023/05/04 07:40:49;;;;;;;0.10;0.10;;;14.40;99.90;;;;;;5080564;28;20195;-81
2023/05/04 07:43:14;;;;;;;0.10;0.10;;;14.60;99.90;;;;;;5080972;28;20680;-82
2023/05/04 07:45:40;;;;;;;0.10;0.10;;;14.60;99.90;;;;;;5082003;28;20203;-81
2023/05/04 07:48:06;;;;;;;0.10;0.10;;;15.30;99.90;;;;;;5079258;28;20189;-81
2023/05/04 07:50:32;;;;;;;0.10;0.10;;;15.40;99.90;;;;;;5081153;28;20211;-81
2023/05/04 07:52:58;;;;;;;0.10;0.10;;;15.70;99.90;;;;;;5078159;28;20192;-81
2023/05/04 07:55:24;;;;;;;0.10;0.10;;;16.10;99.90;;;;;;5079259;28;20203;-82
2023/05/04 07:57:50;;;;;;;0.10;0.10;;;16.40;99.90;;;;;;5079044;28;20235;-81
2023/05/04 08:00:16;;;;;;;0.10;0.10;;;16.30;99.90;;;;;;5078595;28;20212;-82
2023/05/04 08:02:42;;;;;;;0.10;0.10;;;16.30;99.90;;;;;;5079142;28;20240;-81
2023/05/04 08:05:08;;;;;;;0.10;0.10;;;16.20;99.90;;;;;;5080198;28;20180;-82
2023/05/04 08:07:33;;;;;;;0.10;0.10;;;16.20;99.90;;;;;;5082170;28;20211;-81
2023/05/04 08:09:59;;;;;;;0.10;0.10;;;16.40;99.90;;;;;;5080257;28;20204;-82
2023/05/04 08:12:25;;;;;;;0.10;0.10;;;16.60;99.90;;;;;;5079256;28;20235;-82
2023/05/04 08:14:51;;;;;;;0.10;0.10;;;16.20;99.90;;;;;;5079336;28;20445;-81
2023/05/04 08:17:17;;;;;;;0.10;0.10;;;16.30;99.90;;;;;;5081317;28;20191;-81
2023/05/04 08:19:42;;;;;;;0.10;0.10;;;16.60;99.90;;;;;;5080584;28;20201;-81
2023/05/04 08:22:08;;;;;;;0.10;0.10;;;15.90;99.90;;;;;;5078786;28;20207;-82
2023/05/04 08:24:33;;;;;;;0.10;0.10;;;16.20;99.90;;;;;;5078470;28;20247;-81
2023/05/04 08:27:00;;;;;;;0.10;0.10;;;16.00;99.90;;;;;;5077876;28;20266;-81
2023/05/04 08:29:25;;;;;;;0.10;0.10;;;16.40;99.90;;;;;;5081113;28;20241;-81
2023/05/04 08:31:53;;;;;;;0.10;0.10;;;16.40;99.90;;;;;;5078837;28;20267;-81
2023/05/04 08:34:19;;;;;;;0.10;0.10;;;16.50;99.90;;;;;;5079508;28;20706;-82
2023/05/04 08:36:45;;;;;;;0.10;0.10;;;16.90;99.90;;;;;;5077382;28;20267;-81
2023/05/04 08:39:11;;;;;;;0.10;0.10;;;16.30;99.90;;;;;;5080714;28;20336;-82
2023/05/04 08:41:40;;;;;;;0.10;0.10;;;15.70;99.90;;;;;;5078391;28;20208;-81
2023/05/04 08:44:09;;;;;;;0.10;0.10;;;16.30;99.90;;;;;;5079593;28;20236;-81
2023/05/04 08:46:36;;;;;;;0.10;0.10;;;16.20;99.90;;;;;;5080523;28;20681;-81
2023/05/04 08:49:01;;;;;;;0.10;0.10;;;16.30;99.90;;;;;;5079488;28;20211;-81
2023/05/04 08:51:30;;;;;;;0.10;0.10;;;17.00;99.90;;;;;;5073650;28;20190;-81
2023/05/04 08:53:57;;;;;;;0.10;0.10;;;17.00;99.90;;;;;;5072512;28;20338;-81
2023/05/04 08:56:24;;;;;;;0.10;0.10;;;16.80;99.90;;;;;;5069096;28;20235;-80
2023/05/04 08:58:51;;;;;;;0.10;0.10;;;16.60;99.90;;;;;;5072713;28;20205;-79
2023/05/04 09:01:17;;;;;;;0.10;0.10;;;17.40;99.90;;;;;;5069479;28;20215;-81
2023/05/04 09:03:47;;;;;;;0.10;0.10;;;17.00;99.90;;;;;;5072764;28;20197;-81
2023/05/04 09:06:13;;;;;;;0.10;0.10;;;16.80;99.90;;;;;;5072905;28;20217;-80
2023/05/04 09:08:40;;;;;;;0.10;0.10;;;17.40;99.90;;;;;;5071745;28;20311;-80
2023/05/04 09:11:05;;;;;;;0.10;0.10;;;17.30;99.90;;;;;;5075278;28;21033;-85
2023/05/04 09:13:31;;;;;;;0.13;0.13;;;17.10;99.90;;;;;;5076120;28;20258;-83
2023/05/04 09:15:57;;;;;;;0.10;0.10;;;17.00;99.90;;;;;;5078372;28;20662;-81
2023/05/04 09:18:33;;;;;;;0.10;0.10;;;17.40;99.90;;;;;;5072807;28;20181;-81
2023/05/04 09:20:59;;;;;;;0.10;0.10;;;17.90;99.90;;;;;;5077601;28;20279;-80
2023/05/04 09:23:26;;;;;;;0.10;0.10;;;18.30;99.90;;;;;;5093646;28;20269;-80
2023/05/04 09:25:52;;;;;;;0.30;0.30;;;18.40;99.90;;;;;;5080131;28;20270;-81
2023/05/04 09:28:20;;;;;;;0.10;0.10;;;18.50;99.90;;;;;;5078115;28;20541;-81
2023/05/04 09:30:47;;;;;;;0.10;0.10;;;18.70;99.90;;;;;;5094948;28;20177;-80
2023/05/04 09:33:14;;;;;;;0.10;0.10;;;18.50;99.90;;;;;;5077680;28;20192;-81
2023/05/04 09:35:43;;;;;;;0.10;0.10;;;18.60;99.90;;;;;;5076272;28;20185;-81
2023/05/04 09:38:09;;;;;;;0.10;0.10;;;18.80;99.90;;;;;;5077153;28;20189;-80
2023/05/04 09:40:39;;;;;;;0.10;0.10;;;18.80;99.90;;;;;;5077966;28;20201;-80
2023/05/04 09:43:09;;;;;;;1.37;1.37;;;19.00;99.90;;;;;;5078450;28;20549;-81
2023/05/04 09:45:43;;;;;;;0.10;0.10;;;19.30;99.90;;;;;;5068981;28;20184;-81
2023/05/04 09:48:19;;;;;;;0.10;0.10;;;19.30;99.90;;;;;;5076503;28;20815;-81
2023/05/04 09:50:54;;;;;;;0.10;0.10;;;19.10;99.90;;;;;;5079558;28;20179;-80
2023/05/04 09:53:27;;;;;;;0.10;0.10;;;19.80;99.90;;;;;;5081288;28;20183;-81
2023/05/04 09:56:13;;;;;;;0.10;0.10;;;19.60;99.90;;;;;;5079957;28;20184;-81
2023/05/04 09:58:39;;;;;;;0.10;0.10;;;19.10;99.90;;;;;;5078941;28;20265;-80
2023/05/04 10:01:05;;;;;;;0.10;0.10;;;18.80;99.90;;;;;;5062314;28;20521;-80
2023/05/04 10:03:31;;;;;;;0.10;0.10;;;18.90;99.90;;;;;;5077173;28;20203;-81
2023/05/04 10:06:01;;;;;;;0.10;0.10;;;18.60;99.90;;;;;;5078712;28;20215;-81
2023/05/04 10:08:27;;;;;;;0.10;0.10;;;18.80;99.90;;;;;;5078662;28;20314;-80
2023/05/04 10:10:53;;;;;;;0.10;0.10;;;18.90;99.90;;;;;;5075671;28;20624;-81
2023/05/04 10:13:19;;;;;;;0.10;0.10;;;19.00;99.90;;;;;;5078062;28;20186;-80
2023/05/04 10:16:09;;;;;;;0.10;0.10;;;19.00;99.90;;;;;;5077270;28;20817;-81
2023/05/04 10:19:02;;;;;;;0.10;0.10;;;19.30;99.90;;;;;;5076227;28;20205;-81
2023/05/04 10:21:46;;;;;;;0.10;0.10;;;19.60;99.90;;;;;;5076805;28;20188;-80
2023/05/04 10:24:48;;;;;;;0.10;0.10;;;19.70;99.90;;;;;;5076410;28;20214;-80
2023/05/04 10:27:33;;;;;;;0.10;0.10;;;19.90;99.90;;;;;;5078483;28;20207;-80
2023/05/04 10:30:00;;;;;;;0.13;0.13;;;20.20;99.90;;;;;;5076680;28;20251;-80
2023/05/04 10:32:26;;;;;;;0.10;0.10;;;20.10;99.90;;;;;;5073747;28;20173;-81
2023/05/04 10:35:04;;;;;;;0.10;0.10;;;20.50;99.90;;;;;;5077628;28;20724;-81
2023/05/04 10:37:30;;;;;;;0.10;0.10;;;20.80;99.90;;;;;;5077201;28;20184;-81
2023/05/04 10:39:57;;;;;;;0.10;0.10;;;20.30;99.90;;;;;;5077865;28;20283;-81
2023/05/04 10:42:22;;;;;;;0.10;0.10;;;20.30;99.90;;;;;;5075820;28;20203;-81
2023/05/04 10:44:49;;;;;;;0.10;0.10;;;20.60;99.90;;;;;;5073877;28;20776;-81
2023/05/04 10:47:14;;;;;;;0.10;0.10;;;20.30;99.90;;;;;;5072098;28;20250;-81
2023/05/04 10:49:40;;;;;;;0.10;0.10;;;20.30;99.90;;;;;;5072263;28;20576;-81
2023/05/04 10:52:16;;;;;;;0.10;0.10;;;20.30;99.90;;;;;;5073816;28;20211;-81
2023/05/04 10:54:43;;;;;;;0.10;0.10;;;20.30;99.90;;;;;;5073400;28;20291;-81
2023/05/04 10:57:11;;;;;;;0.10;0.10;;;20.10;99.90;;;;;;5074071;28;20199;-81
2023/05/04 10:59:38;;;;;;;0.10;0.10;;;20.30;99.90;;;;;;5070560;28;20301;-80
2023/05/04 11:02:04;;;;;;;0.10;0.10;;;21.10;99.90;;;;;;5069482;28;20185;-80
2023/05/04 11:04:31;;;;;;;0.10;0.10;;;20.80;99.90;;;;;;5075311;28;20208;-79
2023/05/04 11:07:01;;;;;;;0.10;0.10;;;20.40;99.90;;;;;;5071616;28;20690;-80
2023/05/04 11:09:33;;;;;;;0.10;0.10;;;21.10;99.90;;;;;;5066813;28;20208;-81
2023/05/04 11:11:59;;;;;;;0.10;0.10;;;21.20;99.90;;;;;;5071103;28;20209;-81
2023/05/04 11:14:27;;;;;;;0.10;0.10;;;21.60;99.90;;;;;;5074710;28;20262;-81
2023/05/04 11:17:14;;;;;;;0.10;0.10;;;21.80;99.90;;;;;;5074033;28;20188;-81
2023/05/04 11:19:52;;;;;;;0.10;0.10;;;21.10;99.90;;;;;;5075172;28;20298;-81
2023/05/04 11:22:18;;;;;;;0.10;0.10;;;20.80;99.90;;;;;;5073868;28;20184;-81
2023/05/04 11:24:44;;;;;;;0.10;0.10;;;21.60;99.90;;;;;;5074979;28;20181;-81
2023/05/04 11:27:27;;;;;;;0.10;0.10;;;22.10;99.90;;;;;;5075189;28;20292;-81
2023/05/04 11:30:01;;;;;;;0.10;0.10;;;21.90;99.90;;;;;;5076855;28;20305;-80
2023/05/04 11:32:37;;;;;;;0.10;0.10;;;22.00;99.90;;;;;;5075478;28;20189;-81
2023/05/04 11:35:06;;;;;;;0.10;0.10;;;21.90;99.90;;;;;;5076194;28;20176;-80
2023/05/04 11:37:40;;;;;;;0.10;0.10;;;22.00;99.90;;;;;;5078147;28;20241;-81
2023/05/04 11:40:10;;;;;;;0.10;0.10;;;21.90;99.90;;;;;;5077613;28;21091;-81
2023/05/04 11:42:41;;;;;;;0.10;0.10;;;22.00;99.90;;;;;;5074408;28;20276;-81
2023/05/04 11:45:11;;;;;;;0.10;0.10;;;22.70;99.90;;;;;;5074265;28;20262;-81
2023/05/04 11:47:37;;;;;;;0.10;0.10;;;22.60;99.90;;;;;;5075929;28;20647;-81
2023/05/04 11:50:05;;;;;;;0.10;0.10;;;22.90;99.90;;;;;;5072528;28;20207;-82
2023/05/04 11:52:33;;;;;;;0.10;0.10;;;23.40;99.90;;;;;;5076354;28;20310;-81
2023/05/04 11:54:59;;;;;;;0.10;0.10;;;23.60;99.90;;;;;;5074800;28;20175;-81
2023/05/04 11:57:24;;;;;;;0.10;0.10;;;23.60;99.90;;;;;;5074280;28;20188;-81
2023/05/04 11:59:50;;;;;;;0.10;0.10;;;22.30;99.90;;;;;;5072898;28;20226;-80
2023/05/04 12:02:16;;;;;;;0.10;0.10;;;22.50;99.90;;;;;;5073100;28;20658;-81
2023/05/04 12:04:42;;;;;;;0.10;0.10;;;23.10;99.90;;;;;;5076743;28;20226;-80
2023/05/04 12:07:08;;;;;;;0.10;0.10;;;22.60;99.90;;;;;;5076070;28;20206;-81
2023/05/04 12:09:47;;;;;;;0.20;0.20;;;22.70;99.90;;;;;;5076531;28;20204;-81
2023/05/04 12:12:20;;;;;;;0.10;0.10;;;22.70;99.90;;;;;;5066766;28;20678;-82
2023/05/04 12:14:57;;;;;;;0.10;0.10;;;23.10;99.90;;;;;;5068131;28;20260;-82
2023/05/04 12:17:23;;;;;;;0.10;0.10;;;23.30;99.90;;;;;;5071713;28;20172;-82
2023/05/04 12:19:53;;;;;;;0.10;0.10;;;23.20;99.90;;;;;;5072706;28;20226;-82
2023/05/04 12:22:29;;;;;;;0.10;0.10;;;23.50;99.90;;;;;;5074193;28;20173;-81
2023/05/04 12:24:58;;;;;;;0.10;0.10;;;23.90;99.90;;;;;;5074835;28;20177;-82
2023/05/04 12:27:24;;;;;;;0.10;0.10;;;23.90;99.90;;;;;;5076205;28;20262;-82
2023/05/04 12:29:50;;;;;;;0.57;0.57;;;23.80;99.90;;;;;;5073966;28;20211;-82
2023/05/04 12:32:16;;;;;;;0.10;0.10;;;22.60;99.90;;;;;;5073536;28;20177;-81
2023/05/04 12:34:42;;;;;;;0.10;0.10;;;22.60;99.90;;;;;;5075087;28;20189;-82
2023/05/04 12:37:07;;;;;;;0.10;0.10;;;23.00;99.90;;;;;;5072353;28;20193;-82
2023/05/04 12:39:33;;;;;;;0.10;0.10;;;23.30;99.90;;;;;;5071520;28;20212;-82
2023/05/04 12:42:00;;;;;;;0.10;0.10;;;23.60;99.90;;;;;;5073913;28;20253;-82
2023/05/04 12:44:26;;;;;;;0.10;0.10;;;23.90;99.90;;;;;;5074689;28;20203;-82
2023/05/04 12:46:51;;;;;;;0.10;0.10;;;24.00;99.90;;;;;;5079090;28;20221;-82